Time;durP1;ratioP1;P1;durP2;ratioP2;P2;SDS_P1;SDS_P2;PMS_P1;PMS_P2;Temp;Humidity;BMP_temperature;BMP_pressure;BME280_temperature;BME280_humidity;BME280_pressure;Samples;Min_cycle;Max_cycle;Signal;HPM_P1;HPM_P2
2023/03/28 00:00:09;;;;;;;4.88;2.90;;;;;;;9.16;97.13;98592.00;4987391;28;20414;-27
2023/03/28 00:02:34;;;;;;;4.67;2.33;;;;;;;9.12;95.84;98584.75;4987669;28;20501;-27
2023/03/28 00:05:01;;;;;;;5.38;3.35;;;;;;;9.18;96.33;98600.53;4986347;28;20292;-27
2023/03/28 00:07:28;;;;;;;4.82;2.83;;;;;;;9.13;95.38;98616.41;4987278;28;20033;-27
2023/03/28 00:09:55;;;;;;;4.75;2.80;;;;;;;9.14;95.99;98620.69;4987489;28;20022;-27
2023/03/28 00:12:20;;;;;;;5.85;3.30;;;;;;;9.12;95.63;98625.44;4987214;28;20023;-27
2023/03/28 00:14:46;;;;;;;4.03;2.53;;;;;;;9.13;96.03;98627.03;4987160;28;20033;-27
2023/03/28 00:17:12;;;;;;;3.95;2.50;;;;;;;9.11;95.68;98612.38;4987028;28;20022;-27
2023/03/28 00:19:39;;;;;;;4.72;2.80;;;;;;;9.08;95.84;98626.19;4987381;28;20041;-27
2023/03/28 00:22:05;;;;;;;4.13;2.45;;;;;;;8.81;95.30;98597.63;4987040;28;20049;-27
2023/03/28 00:24:34;;;;;;;4.22;2.70;;;;;;;8.97;95.55;98611.94;4987176;28;20481;-27
2023/03/28 00:27:00;;;;;;;4.13;2.47;;;;;;;8.85;96.89;98620.00;4969166;28;20418;-27
2023/03/28 00:29:28;;;;;;;4.18;2.25;;;;;;;9.00;95.45;98625.53;4986847;28;20152;-27
2023/03/28 00:31:54;;;;;;;3.78;2.30;;;;;;;9.00;94.79;98638.84;4987645;28;20041;-27
2023/03/28 00:34:20;;;;;;;4.50;2.50;;;;;;;9.05;95.04;98640.75;4987192;28;20030;-27
2023/03/28 00:36:45;;;;;;;2.92;1.80;;;;;;;8.94;95.13;98642.47;4986660;28;20053;-27
2023/03/28 00:39:10;;;;;;;3.03;2.15;;;;;;;8.97;94.97;98638.50;4986808;28;20033;-27
2023/03/28 00:41:39;;;;;;;3.50;2.08;;;;;;;8.99;95.58;98641.72;4986935;28;20120;-28
2023/03/28 00:44:23;;;;;;;;;;;;;;;8.99;95.99;98644.38;4987598;28;20158;-27
2023/03/28 00:46:49;;;;;;;3.95;2.58;;;;;;;8.90;95.93;98635.22;4986861;28;19906;-27
2023/03/28 00:49:21;;;;;;;3.28;2.25;;;;;;;8.74;94.84;98616.38;4987013;28;20547;-27
2023/03/28 00:51:56;;;;;;;3.50;2.00;;;;;;;9.03;95.55;98653.50;4986802;28;20042;-27
2023/03/28 00:54:23;;;;;;;6.15;3.13;;;;;;;9.03;94.80;98642.84;4986886;28;20034;-27
2023/03/28 00:56:54;;;;;;;5.43;3.10;;;;;;;8.80;95.65;98619.91;4986703;28;20069;-27
2023/03/28 00:59:23;;;;;;;5.15;3.40;;;;;;;8.90;96.70;98635.22;4986540;28;20072;-27
2023/03/28 01:01:49;;;;;;;4.10;2.70;;;;;;;8.96;95.80;98648.34;4986494;28;20097;-28
2023/03/28 01:04:19;;;;;;;4.50;2.53;;;;;;;8.97;94.92;98644.66;4986672;28;20030;-28
2023/03/28 01:06:49;;;;;;;5.43;2.60;;;;;;;8.92;95.62;98659.72;4986913;28;20030;-27
2023/03/28 01:09:17;;;;;;;4.15;2.60;;;;;;;8.96;94.49;98643.03;4986961;28;20030;-27
2023/03/28 01:11:44;;;;;;;3.40;2.30;;;;;;;8.82;94.92;98647.88;4986489;28;20070;-28
2023/03/28 01:14:14;;;;;;;2.42;1.77;;;;;;;8.70;94.40;98641.81;4986604;28;20037;-28
2023/03/28 01:16:41;;;;;;;3.45;2.17;;;;;;;8.84;94.77;98663.59;4972608;28;20422;-28
2023/03/28 01:19:20;;;;;;;4.25;2.20;;;;;;;8.89;94.82;98662.84;4990273;28;20585;-28
2023/03/28 01:22:05;;;;;;;2.90;1.92;;;;;;;8.83;94.86;98656.66;4990067;28;20595;-27
2023/03/28 01:25:01;;;;;;;3.35;2.10;;;;;;;8.77;95.06;98663.75;4990184;28;20030;-27
2023/03/28 01:27:43;;;;;;;2.03;1.55;;;;;;;8.68;94.91;98662.53;4990205;28;20026;-27
2023/03/28 01:30:50;;;;;;;3.15;1.40;;;;;;;8.56;95.01;98667.94;4990080;28;20101;-28
2023/03/28 01:33:34;;;;;;;3.33;1.77;;;;;;;8.61;94.51;98659.22;4910359;29;20040;-27
2023/03/28 01:36:02;;;;;;;2.97;2.05;;;;;;;8.66;93.81;98661.97;4986897;28;20473;-36
2023/03/28 01:38:50;;;;;;;2.42;1.73;;;;;;;8.50;93.31;98674.19;4990011;28;20026;-27
2023/03/28 01:41:34;;;;;;;1.75;1.15;;;;;;;8.18;91.49;98665.88;4989933;28;20062;-27
2023/03/28 01:44:18;;;;;;;1.77;1.17;;;;;;;8.13;92.17;98677.22;4989785;28;20089;-27
2023/03/28 01:46:58;;;;;;;2.63;1.90;;;;;;;8.07;92.74;98691.44;4989853;28;20088;-27
2023/03/28 01:49:48;;;;;;;2.45;1.55;;;;;;;8.03;91.09;98707.03;4989865;28;20022;-27
2023/03/28 01:52:24;;;;;;;2.38;1.65;;;;;;;7.92;92.03;98694.59;4989803;28;20037;-27
2023/03/28 01:55:13;;;;;;;2.63;1.60;;;;;;;7.85;91.90;98686.75;4989683;28;20025;-28
2023/03/28 01:57:52;;;;;;;2.95;1.75;;;;;;;7.91;92.19;98706.25;4989285;28;20481;-27
2023/03/28 02:00:28;;;;;;;4.03;2.25;;;;;;;7.15;89.65;98711.53;4989368;28;20081;-27
2023/03/28 02:03:04;;;;;;;2.28;1.67;;;;;;;7.17;89.82;98696.19;4989350;28;20034;-27
2023/03/28 02:05:32;;;;;;;4.50;2.22;;;;;;;7.19;88.07;98707.38;4989266;28;20038;-27
2023/03/28 02:08:01;;;;;;;3.97;2.25;;;;;;;7.07;89.97;98709.22;4989276;28;20511;-27
2023/03/28 02:10:30;;;;;;;3.58;2.50;;;;;;;7.19;89.04;98702.06;4989019;28;20030;-27
2023/03/28 02:13:06;;;;;;;3.30;2.35;;;;;;;7.19;89.82;98712.69;4989192;28;20034;-28
2023/03/28 02:15:32;;;;;;;5.07;2.80;;;;;;;7.00;91.01;98729.69;4989203;28;20041;-28
2023/03/28 02:18:07;;;;;;;4.53;2.40;;;;;;;7.00;91.56;98729.69;4989275;28;20030;-27
2023/03/28 02:20:36;;;;;;;4.75;2.85;;;;;;;6.78;90.63;98700.28;4989163;28;20142;-27
2023/03/28 02:23:12;;;;;;;3.95;2.40;;;;;;;6.73;89.22;98719.50;4988792;28;20033;-27
2023/03/28 02:25:38;;;;;;;3.58;2.28;;;;;;;6.76;89.64;98734.97;4989066;28;20026;-26
2023/03/28 02:28:07;;;;;;;4.22;2.35;;;;;;;6.65;90.34;98727.78;4988234;28;20037;-27
2023/03/28 02:30:34;;;;;;;4.57;2.38;;;;;;;6.55;88.59;98748.72;4988925;28;20042;-28
2023/03/28 02:33:04;;;;;;;4.00;2.10;;;;;;;6.52;88.33;98755.25;4988515;28;20417;-27
2023/03/28 02:36:00;;;;;;;3.53;2.30;;;;;;;6.41;87.08;98751.53;4988880;28;20058;-27
2023/03/28 02:38:29;;;;;;;3.50;2.08;;;;;;;6.49;87.24;98763.66;4988615;28;20041;-27
2023/03/28 02:41:26;;;;;;;3.65;1.85;;;;;;;6.45;86.30;98762.47;4988510;28;20054;-27
2023/03/28 02:43:59;;;;;;;4.30;2.38;;;;;;;6.42;85.50;98769.03;4988548;28;20399;-26
2023/03/28 02:46:43;;;;;;;3.70;2.42;;;;;;;6.38;84.28;98761.78;4988709;28;20576;-27
2023/03/28 02:49:49;;;;;;;2.88;2.22;;;;;;;6.41;84.86;98759.47;4988696;28;20039;-27
2023/03/28 02:52:50;;;;;;;3.22;1.95;;;;;;;6.04;84.13;98753.41;4908984;29;20543;-27
2023/03/28 02:55:37;;;;;;;3.47;2.20;;;;;;;6.11;84.81;98750.69;4906706;29;20041;-27
2023/03/28 02:58:36;;;;;;;4.07;2.40;;;;;;;5.95;84.70;98768.78;4977958;28;20047;-26
2023/03/28 03:01:02;;;;;;;2.70;1.95;;;;;;;5.74;84.86;98758.59;4988271;28;20306;-27
2023/03/28 03:03:27;;;;;;;2.55;1.95;;;;;;;5.79;84.46;98770.13;4988213;28;20053;-26
2023/03/28 03:05:53;;;;;;;2.88;1.95;;;;;;;5.80;84.60;98757.72;4988207;28;20061;-27
2023/03/28 03:08:19;;;;;;;3.42;2.17;;;;;;;5.62;84.23;98783.13;4988165;28;20426;-26
2023/03/28 03:10:44;;;;;;;3.45;2.15;;;;;;;5.55;83.48;98800.88;4988234;28;20026;-26
2023/03/28 03:13:10;;;;;;;4.40;2.80;;;;;;;5.36;84.42;98778.06;4988055;28;20023;-26
2023/03/28 03:15:35;;;;;;;4.25;3.05;;;;;;;5.51;84.68;98785.66;4988168;28;20093;-26
2023/03/28 03:18:01;;;;;;;4.65;2.97;;;;;;;5.39;85.40;98788.22;4988157;28;20061;-27
2023/03/28 03:20:32;;;;;;;3.92;2.70;;;;;;;5.27;85.35;98800.50;4987571;28;20141;-27
2023/03/28 03:22:58;;;;;;;4.85;2.88;;;;;;;5.27;84.53;98792.56;4987880;28;20046;-26
2023/03/28 03:25:23;;;;;;;4.30;2.88;;;;;;;5.04;84.33;98793.97;4987764;28;20033;-26
2023/03/28 03:27:49;;;;;;;3.50;2.55;;;;;;;5.12;84.29;98817.50;4987997;28;20026;-26
2023/03/28 03:30:14;;;;;;;4.75;2.78;;;;;;;5.24;84.99;98818.41;4987772;28;20031;-27
2023/03/28 03:32:40;;;;;;;8.45;3.53;;;;;;;5.11;83.89;98807.13;4987859;28;20065;-26
2023/03/28 03:35:06;;;;;;;5.75;3.60;;;;;;;5.00;84.09;98816.56;4987674;28;20166;-26
2023/03/28 03:37:31;;;;;;;6.68;3.92;;;;;;;5.01;83.89;98797.03;4987616;28;20477;-26
2023/03/28 03:39:56;;;;;;;5.72;3.88;;;;;;;4.99;84.39;98817.59;4987473;28;20026;-26
2023/03/28 03:42:22;;;;;;;7.05;3.90;;;;;;;4.94;84.68;98817.41;4987490;28;20034;-26
2023/03/28 03:44:47;;;;;;;5.68;3.65;;;;;;;4.83;83.47;98814.41;4987862;28;20034;-26
2023/03/28 03:47:13;;;;;;;5.40;3.60;;;;;;;4.76;84.08;98815.47;4987670;28;20030;-26
2023/03/28 03:49:39;;;;;;;8.00;3.88;;;;;;;4.87;83.81;98837.78;4987174;28;20038;-28
2023/03/28 03:52:04;;;;;;;6.03;4.10;;;;;;;4.85;83.13;98837.19;4987480;28;20441;-26
2023/03/28 03:54:30;;;;;;;7.38;3.92;;;;;;;4.70;83.56;98829.50;4987550;28;20022;-28
2023/03/28 03:56:55;;;;;;;7.82;4.65;;;;;;;4.70;85.02;98837.44;4987266;28;20413;-26
2023/03/28 03:59:21;;;;;;;6.10;4.47;;;;;;;4.52;83.80;98811.75;4986889;28;20786;-28
2023/03/28 04:01:46;;;;;;;5.72;4.00;;;;;;;4.61;83.25;98842.97;4987002;28;20437;-26
2023/03/28 04:04:12;;;;;;;7.88;4.28;;;;;;;4.70;83.70;98838.28;4987060;28;20029;-26
2023/03/28 04:06:38;;;;;;;5.45;3.72;;;;;;;4.61;83.12;98855.38;4987060;28;20111;-26
2023/03/28 04:09:05;;;;;;;6.47;3.88;;;;;;;4.47;83.68;98856.44;4987286;28;20410;-28
2023/03/28 04:11:30;;;;;;;9.27;4.68;;;;;;;4.49;83.60;98862.31;4987020;28;20026;-26
2023/03/28 04:13:56;;;;;;;7.88;4.50;;;;;;;4.41;84.03;98877.38;4987343;28;20405;-27
2023/03/28 04:16:22;;;;;;;6.40;4.15;;;;;;;4.42;83.39;98863.16;4987213;28;20038;-28
2023/03/28 04:18:51;;;;;;;8.02;4.65;;;;;;;4.27;83.94;98854.69;4987385;28;20033;-26
2023/03/28 04:21:19;;;;;;;8.68;5.10;;;;;;;4.28;84.69;98874.78;4986899;28;20034;-28
2023/03/28 04:23:47;;;;;;;6.55;4.40;;;;;;;4.25;82.68;98898.94;4987175;28;20027;-26
2023/03/28 04:26:14;;;;;;;6.30;3.97;;;;;;;4.30;83.16;98885.13;4987354;28;20039;-26
2023/03/28 04:28:40;;;;;;;6.00;4.20;;;;;;;4.31;82.48;98881.44;4987149;28;20100;-26
2023/03/28 04:31:06;;;;;;;10.32;4.68;;;;;;;4.34;83.24;98902.97;4986905;28;20065;-26
2023/03/28 04:33:32;;;;;;;7.07;5.28;;;;;;;4.17;81.74;98913.16;4987179;28;20476;-28
2023/03/28 04:36:00;;;;;;;6.43;4.28;;;;;;;4.26;81.67;98910.31;4986967;28;20019;-26
2023/03/28 04:38:28;;;;;;;5.72;4.35;;;;;;;4.32;80.52;98915.56;4987173;28;20065;-28
2023/03/28 04:40:57;;;;;;;7.33;4.27;;;;;;;4.32;81.43;98914.75;4986916;28;20038;-26
2023/03/28 04:43:30;;;;;;;6.55;4.93;;;;;;;4.22;80.01;98905.44;4986754;28;20335;-28
2023/03/28 04:45:57;;;;;;;5.93;3.78;;;;;;;4.22;79.99;98928.38;4987061;28;20417;-26
2023/03/28 04:48:25;;;;;;;7.07;4.53;;;;;;;4.30;79.56;98940.53;4987184;28;20077;-28
2023/03/28 04:50:51;;;;;;;5.82;3.70;;;;;;;4.32;79.55;98939.31;4989336;28;20068;-26
2023/03/28 04:53:17;;;;;;;8.43;4.60;;;;;;;4.22;79.26;98952.94;4990833;28;20161;-28
2023/03/28 04:55:48;;;;;;;9.70;4.60;;;;;;;4.21;78.87;98924.13;4991240;28;20042;-28
2023/03/28 04:58:15;;;;;;;7.85;4.72;;;;;;;4.29;78.63;98963.50;4990654;28;20035;-28
2023/03/28 05:00:41;;;;;;;7.65;3.72;;;;;;;4.21;77.40;98955.78;4990262;28;20050;-26
2023/03/28 05:03:17;;;;;;;9.98;4.90;;;;;;;4.30;77.37;98959.03;4990474;28;20069;-26
2023/03/28 05:05:46;;;;;;;4.35;2.75;;;;;;;4.04;76.72;98939.53;4990501;28;20037;-26
2023/03/28 05:08:13;;;;;;;7.45;3.80;;;;;;;4.38;77.44;98964.09;4990355;28;20027;-26
2023/03/28 05:10:39;;;;;;;6.60;3.75;;;;;;;4.32;76.73;98983.38;4990389;28;20026;-26
2023/03/28 05:13:05;;;;;;;5.80;3.50;;;;;;;4.25;76.86;98962.28;4990332;28;20026;-26
2023/03/28 05:15:31;;;;;;;5.43;2.90;;;;;;;4.33;76.30;98977.91;4990228;28;20025;-26
2023/03/28 05:17:57;;;;;;;4.25;2.53;;;;;;;4.29;75.03;98979.34;4990144;28;20026;-26
2023/03/28 05:20:24;;;;;;;4.22;2.38;;;;;;;4.34;74.26;99008.56;4990221;28;20421;-27
2023/03/28 05:22:49;;;;;;;5.43;2.70;;;;;;;4.42;75.11;98970.56;4990122;28;20054;-26
2023/03/28 05:25:15;;;;;;;4.50;3.15;;;;;;;4.36;74.96;98980.13;4990238;28;20081;-26
2023/03/28 05:27:41;;;;;;;5.32;2.75;;;;;;;4.44;74.40;98965.91;4990003;28;20038;-26
2023/03/28 05:30:08;;;;;;;2.72;1.90;;;;;;;4.52;73.52;98978.09;4989969;28;20125;-27
2023/03/28 05:32:34;;;;;;;3.25;2.10;;;;;;;4.59;71.97;98994.72;4990212;28;20034;-28
2023/03/28 05:35:00;;;;;;;2.95;2.10;;;;;;;4.47;72.91;98977.88;4989691;28;20763;-26
2023/03/28 05:37:25;;;;;;;6.47;2.35;;;;;;;4.68;72.35;98988.19;4989974;28;20349;-26
2023/03/28 05:39:51;;;;;;;3.45;2.15;;;;;;;4.53;71.95;99001.63;4989722;28;20026;-26
2023/03/28 05:42:17;;;;;;;3.03;1.92;;;;;;;4.62;72.10;98994.31;4989809;28;20105;-26
2023/03/28 05:44:42;;;;;;;5.40;1.95;;;;;;;4.56;72.35;99003.06;4989581;28;20064;-26
2023/03/28 05:47:08;;;;;;;3.22;1.95;;;;;;;4.57;71.48;98991.47;4989348;28;20069;-26
2023/03/28 05:49:33;;;;;;;3.83;1.60;;;;;;;4.68;72.26;98988.19;4989541;28;20022;-26
2023/03/28 05:51:59;;;;;;;5.97;2.63;;;;;;;4.64;71.68;98997.56;4989761;28;20026;-26
2023/03/28 05:54:24;;;;;;;3.08;1.90;;;;;;;4.69;71.35;99000.38;4989734;28;20480;-26
2023/03/28 05:56:50;;;;;;;3.53;2.10;;;;;;;4.76;69.93;99029.41;4989738;28;20120;-26
2023/03/28 05:59:17;;;;;;;2.25;1.75;;;;;;;4.76;70.82;99024.13;4989156;28;20088;-26
2023/03/28 06:01:45;;;;;;;2.95;1.92;;;;;;;4.73;70.26;99033.28;4988315;28;20026;-27
2023/03/28 06:04:11;;;;;;;2.30;1.80;;;;;;;4.73;70.15;99043.03;4989588;28;20023;-27
2023/03/28 06:06:37;;;;;;;3.03;1.75;;;;;;;4.64;69.80;99029.25;4989243;28;20041;-26
2023/03/28 06:09:02;;;;;;;3.88;1.90;;;;;;;4.70;70.66;99044.28;4989578;28;20409;-27
2023/03/28 06:11:28;;;;;;;3.28;1.60;;;;;;;4.72;70.58;99038.75;4989665;28;20065;-27
2023/03/28 06:13:53;;;;;;;4.32;1.90;;;;;;;4.69;69.63;99058.47;4989358;28;20031;-27
2023/03/28 06:16:19;;;;;;;2.55;1.85;;;;;;;4.74;69.56;99056.03;4989585;28;20027;-27
2023/03/28 06:18:44;;;;;;;4.57;1.50;;;;;;;4.78;68.86;99057.25;4989093;28;20050;-26
2023/03/28 06:21:09;;;;;;;3.67;1.45;;;;;;;4.99;69.46;99055.38;4988414;28;20030;-26
2023/03/28 06:23:35;;;;;;;2.58;1.50;;;;;;;5.23;68.99;99069.72;4988399;28;20022;-27
2023/03/28 06:26:01;;;;;;;5.75;2.25;;;;;;;5.34;68.58;99078.88;4988531;28;20023;-27
2023/03/28 06:28:26;;;;;;;2.42;1.60;;;;;;;5.38;66.75;99072.13;4988401;28;20026;-27
2023/03/28 06:30:52;;;;;;;4.15;1.90;;;;;;;5.60;67.02;99070.81;4988301;28;20208;-27
2023/03/28 06:33:17;;;;;;;2.20;1.70;;;;;;;5.80;67.42;99054.00;4988444;28;20029;-27
2023/03/28 06:35:43;;;;;;;2.40;1.52;;;;;;;5.93;65.05;99074.31;4988426;28;20042;-27
2023/03/28 06:38:08;;;;;;;3.70;1.85;;;;;;;5.81;65.25;99066.25;4988430;28;20030;-27
2023/03/28 06:40:34;;;;;;;2.88;1.52;;;;;;;5.89;64.99;99091.66;4989084;28;20177;-26
2023/03/28 06:42:59;;;;;;;2.58;1.80;;;;;;;5.67;64.38;99086.66;4988594;28;20476;-27
2023/03/28 06:45:25;;;;;;;3.13;2.13;;;;;;;5.51;65.49;99082.66;4988400;28;20033;-26
2023/03/28 06:47:51;;;;;;;6.10;2.30;;;;;;;5.40;66.10;99068.25;4988506;28;20038;-26
2023/03/28 06:50:16;;;;;;;3.33;1.92;;;;;;;5.42;65.55;99094.50;4988630;28;20773;-26
2023/03/28 06:52:42;;;;;;;4.68;2.80;;;;;;;5.31;64.77;99082.75;4988608;28;20472;-27
2023/03/28 06:55:08;;;;;;;2.88;2.13;;;;;;;5.29;63.49;99095.34;4988036;28;20037;-26
2023/03/28 06:57:34;;;;;;;4.68;2.40;;;;;;;5.56;65.29;99106.66;4988272;28;20037;-27
2023/03/28 06:59:59;;;;;;;4.95;2.42;;;;;;;5.41;65.88;99092.84;4988330;28;20034;-26
2023/03/28 07:02:25;;;;;;;7.15;3.03;;;;;;;5.42;64.23;99105.06;4988407;28;20057;-26
2023/03/28 07:04:50;;;;;;;3.60;2.22;;;;;;;5.53;67.10;99122.91;4988035;28;20037;-26
2023/03/28 07:07:16;;;;;;;4.22;2.65;;;;;;;5.49;65.05;99105.03;4988165;28;20022;-27
2023/03/28 07:09:41;;;;;;;4.80;2.83;;;;;;;5.95;65.04;99112.81;4988249;28;20030;-26
2023/03/28 07:12:07;;;;;;;5.07;2.67;;;;;;;5.90;62.76;99144.34;4987448;28;20037;-28
2023/03/28 07:14:32;;;;;;;5.15;3.15;;;;;;;6.20;64.54;99125.28;4987251;28;20057;-27
2023/03/28 07:16:58;;;;;;;4.82;3.38;;;;;;;6.60;63.74;99132.97;4987380;28;20493;-27
2023/03/28 07:19:24;;;;;;;4.13;2.85;;;;;;;6.48;63.29;99130.19;4987059;28;20426;-26
2023/03/28 07:21:49;;;;;;;4.90;3.20;;;;;;;6.16;62.70;99126.72;4985090;28;20045;-26
2023/03/28 07:24:15;;;;;;;5.30;3.38;;;;;;;6.16;61.79;99132.03;4987146;28;20379;-26
2023/03/28 07:26:40;;;;;;;5.68;3.22;;;;;;;6.25;62.77;99157.22;4987455;28;20069;-26
2023/03/28 07:29:06;;;;;;;4.30;3.05;;;;;;;6.34;61.31;99142.72;4987004;28;20160;-26
2023/03/28 07:31:32;;;;;;;4.93;3.35;;;;;;;6.45;61.79;99133.25;4987069;28;20029;-26
2023/03/28 07:33:57;;;;;;;6.13;3.45;;;;;;;6.68;60.95;99150.41;4987201;28;20049;-26
2023/03/28 07:36:26;;;;;;;7.10;3.60;;;;;;;6.57;58.72;99154.56;4987263;28;20034;-26
2023/03/28 07:38:51;;;;;;;5.70;3.53;;;;;;;6.38;58.79;99125.38;4987708;28;20062;-26
2023/03/28 07:41:18;;;;;;;5.53;3.40;;;;;;;6.59;57.75;99128.69;4987469;28;20072;-27
2023/03/28 07:43:43;;;;;;;5.57;3.90;;;;;;;6.68;58.40;99166.31;4987606;28;20046;-26
2023/03/28 07:46:13;;;;;;;6.20;3.58;;;;;;;6.49;56.73;99168.06;4987492;28;20030;-27
2023/03/28 07:48:42;;;;;;;7.30;4.25;;;;;;;6.33;56.36;99133.13;4986949;28;20046;-27
2023/03/28 07:51:09;;;;;;;6.15;3.65;;;;;;;6.39;56.88;99147.34;4985948;28;20061;-27
2023/03/28 07:53:36;;;;;;;6.10;3.80;;;;;;;6.31;58.51;99177.53;4986327;28;20418;-26
2023/03/28 07:56:03;;;;;;;6.32;4.25;;;;;;;6.24;56.47;99179.44;4985891;28;20022;-26
2023/03/28 07:58:28;;;;;;;5.72;3.85;;;;;;;6.12;57.53;99157.31;4986114;28;20821;-27
2023/03/28 08:00:55;;;;;;;5.30;3.72;;;;;;;6.12;56.77;99184.56;4985725;28;20050;-27
2023/03/28 08:03:22;;;;;;;4.53;3.50;;;;;;;6.29;57.06;99182.25;4986178;28;20022;-27
2023/03/28 08:05:51;;;;;;;5.30;3.88;;;;;;;6.37;56.50;99192.56;4985959;28;20109;-27
2023/03/28 08:08:20;;;;;;;6.47;3.58;;;;;;;6.79;56.68;99179.66;4985966;28;20034;-27
2023/03/28 08:10:49;;;;;;;5.20;3.25;;;;;;;7.41;55.96;99171.75;4985805;28;20026;-27
2023/03/28 08:13:15;;;;;;;6.00;3.10;;;;;;;7.24;54.24;99192.75;4985229;28;20026;-27
2023/03/28 08:15:41;;;;;;;5.20;3.40;;;;;;;7.26;53.93;99194.38;4967761;28;20073;-27
2023/03/28 08:18:06;;;;;;;5.18;3.60;;;;;;;7.27;53.53;99223.31;4967475;28;20038;-27
2023/03/28 08:20:32;;;;;;;4.63;3.00;;;;;;;7.39;53.74;99194.25;4950125;28;20786;-27
2023/03/28 08:22:58;;;;;;;5.90;3.15;;;;;;;7.35;51.51;99203.66;4978908;28;20489;-27
2023/03/28 08:25:23;;;;;;;5.20;3.38;;;;;;;7.71;51.79;99194.13;4988762;28;20382;-27
2023/03/28 08:27:48;;;;;;;3.83;2.55;;;;;;;7.89;52.33;99225.97;4986698;28;20030;-27
2023/03/28 08:30:14;;;;;;;6.00;2.80;;;;;;;8.00;54.03;99227.06;4986867;28;20217;-27
2023/03/28 08:32:40;;;;;;;6.63;4.38;;;;;;;8.08;53.23;99213.47;4986742;28;20078;-27
2023/03/28 08:35:06;;;;;;;5.13;2.72;;;;;;;8.09;52.15;99240.84;4986847;28;20100;-27
2023/03/28 08:37:32;;;;;;;4.88;2.78;;;;;;;7.78;50.70;99222.19;4986750;28;20117;-26
2023/03/28 08:39:59;;;;;;;5.55;3.10;;;;;;;8.08;50.57;99255.97;4986687;28;20038;-26
2023/03/28 08:42:57;;;;;;;6.80;3.97;;;;;;;7.85;53.42;99206.22;4986888;28;20026;-27
2023/03/28 08:45:34;;;;;;;4.97;3.17;;;;;;;8.27;51.46;99243.47;4986512;28;20527;-27
2023/03/28 08:48:14;;;;;;;5.00;3.22;;;;;;;7.53;52.96;99214.31;4969231;28;20038;-26
2023/03/28 08:50:54;;;;;;;6.68;3.50;;;;;;;7.67;53.05;99233.56;4986508;28;20042;-27
2023/03/28 08:53:54;;;;;;;6.47;3.22;;;;;;;7.95;52.12;99235.72;4986837;28;20030;-27
2023/03/28 08:56:19;;;;;;;5.07;3.05;;;;;;;8.40;49.98;99261.13;4986313;28;20088;-27
2023/03/28 08:59:20;;;;;;;6.35;3.70;;;;;;;8.49;49.50;99235.06;4986125;28;20030;-27
2023/03/28 09:01:46;;;;;;;4.18;3.10;;;;;;;8.38;48.41;99263.19;4985665;28;20501;-26
2023/03/28 09:04:25;;;;;;;5.38;2.88;;;;;;;8.47;46.74;99253.09;4986555;28;20026;-27
2023/03/28 09:06:56;;;;;;;5.60;2.78;;;;;;;8.09;47.98;99256.78;4985885;28;20064;-26
2023/03/28 09:09:27;;;;;;;4.93;3.00;;;;;;;8.23;49.68;99268.88;4985946;28;20038;-26
2023/03/28 09:12:11;;;;;;;4.75;3.13;;;;;;;8.64;48.05;99301.91;4985542;28;20030;-26
2023/03/28 09:15:08;;;;;;;4.30;2.97;;;;;;;8.35;47.07;99283.03;4985768;28;20045;-27
2023/03/28 09:18:06;;;;;;;8.60;3.75;;;;;;;8.51;47.12;99270.19;4985936;28;20030;-26
2023/03/28 09:20:47;;;;;;;4.72;3.05;;;;;;;8.49;48.69;99245.69;4985097;28;20081;-26
2023/03/28 09:23:21;;;;;;;5.40;2.58;;;;;;;8.72;46.98;99261.72;4986061;28;20041;-26
2023/03/28 09:25:59;;;;;;;4.75;2.85;;;;;;;8.71;46.12;99276.06;4985580;28;20026;-26
2023/03/28 09:28:37;;;;;;;6.30;2.70;;;;;;;9.01;45.04;99280.53;4985306;28;20046;-26
2023/03/28 09:31:08;;;;;;;4.03;2.38;;;;;;;9.16;46.21;99272.94;4985631;28;20085;-26
2023/03/28 09:33:39;;;;;;;4.57;2.28;;;;;;;9.02;46.16;99271.50;4985417;28;20085;-26
2023/03/28 09:36:14;;;;;;;3.80;2.50;;;;;;;9.55;47.22;99265.31;4986856;28;20580;-26
2023/03/28 09:39:06;;;;;;;3.35;2.42;;;;;;;9.50;46.46;99275.03;4989313;28;20036;-26
2023/03/28 09:42:17;;;;;;;4.05;1.90;;;;;;;9.27;45.41;99318.41;4975328;28;20034;-27
2023/03/28 09:44:56;;;;;;;6.25;2.75;;;;;;;8.99;45.58;99256.84;4983522;28;20038;-26
2023/03/28 09:47:21;;;;;;;;;;;;;;;8.90;46.61;99278.66;4989255;28;20030;-26
2023/03/28 09:49:46;;;;;;;4.90;2.92;;;;;;;8.92;44.89;99284.56;4988799;28;19925;-27
2023/03/28 09:52:14;;;;;;;3.42;2.25;;;;;;;9.03;45.27;99299.72;4989036;28;20034;-26
2023/03/28 09:54:41;;;;;;;4.22;2.38;;;;;;;9.40;45.90;99299.59;4989465;28;20069;-26
2023/03/28 09:57:06;;;;;;;5.30;2.53;;;;;;;9.52;44.90;99281.78;4988419;28;20038;-26
2023/03/28 09:59:34;;;;;;;6.10;2.03;;;;;;;9.45;43.27;99320.97;4988595;28;20504;-26
2023/03/28 10:02:02;;;;;;;4.60;2.22;;;;;;;9.47;44.87;99310.91;4988740;28;20030;-26
2023/03/28 10:04:28;;;;;;;;;;;;;;;10.05;43.76;99307.44;4988944;28;20042;-26
2023/03/28 10:07:13;;;;;;;3.28;1.95;;;;;;;10.49;42.79;99314.22;4988395;28;19918;-26
2023/03/28 10:09:46;;;;;;;4.38;2.20;;;;;;;9.48;42.66;99295.75;4988361;28;20030;-27
2023/03/28 10:12:23;;;;;;;3.55;2.30;;;;;;;10.03;42.52;99316.69;4988851;28;20034;-26
2023/03/28 10:14:48;;;;;;;3.72;2.30;;;;;;;9.83;42.54;99336.53;4988348;28;20029;-26
2023/03/28 10:17:26;;;;;;;3.25;2.03;;;;;;;10.12;42.14;99343.81;4988654;28;20022;-26
2023/03/28 10:19:57;;;;;;;2.72;2.15;;;;;;;9.83;42.89;99331.19;4988585;28;20525;-26
2023/03/28 10:22:31;;;;;;;3.90;2.25;;;;;;;9.47;43.32;99326.88;4988349;28;20042;-26
2023/03/28 10:24:57;;;;;;;6.88;2.60;;;;;;;8.80;42.59;99330.50;4988300;28;20122;-25
2023/03/28 10:27:31;;;;;;;4.90;2.00;;;;;;;9.44;42.17;99332.69;4988256;28;20609;-28
2023/03/28 10:30:07;;;;;;;4.00;2.40;;;;;;;9.38;41.55;99376.97;4988266;28;20022;-26
2023/03/28 10:32:33;;;;;;;2.40;1.98;;;;;;;9.73;42.57;99328.31;4988202;28;20026;-26
2023/03/28 10:35:08;;;;;;;3.30;1.70;;;;;;;10.40;41.52;99341.25;4988394;28;20402;-26
2023/03/28 10:37:34;;;;;;;3.90;2.20;;;;;;;10.25;41.79;99328.34;4988193;28;20042;-26
2023/03/28 10:40:06;;;;;;;4.00;2.10;;;;;;;10.68;41.00;99320.97;4987855;28;20034;-27
2023/03/28 10:42:40;;;;;;;3.85;2.25;;;;;;;10.13;39.52;99332.09;4988198;28;20030;-26
2023/03/28 10:45:06;;;;;;;3.38;2.22;;;;;;;9.89;40.70;99328.63;4987752;28;20030;-27
2023/03/28 10:47:33;;;;;;;5.90;2.28;;;;;;;10.01;40.50;99337.44;4987311;28;20026;-27
2023/03/28 10:49:59;;;;;;;3.20;2.10;;;;;;;10.02;41.75;99341.72;4987676;28;20533;-27
2023/03/28 10:53:26;;;;;;;3.80;2.30;;;;;;;10.34;42.48;99355.50;4987707;28;20079;-26
2023/03/28 10:56:07;;;;;;;4.90;2.58;;;;;;;10.79;39.54;99338.00;4907806;29;20472;-27
2023/03/28 10:58:58;;;;;;;2.75;1.90;;;;;;;10.31;38.92;99368.47;4907483;29;20040;-28
2023/03/28 11:01:31;;;;;;;3.05;1.95;;;;;;;10.66;40.70;99381.72;4966321;28;20065;-27
2023/03/28 11:04:12;;;;;;;3.45;2.10;;;;;;;10.56;39.45;99377.03;4987289;28;20046;-27
2023/03/28 11:06:56;;;;;;;3.22;1.90;;;;;;;10.80;39.21;99392.94;4987341;28;20180;-27
2023/03/28 11:09:32;;;;;;;3.53;1.80;;;;;;;10.99;39.42;99380.22;4987195;28;20085;-27
2023/03/28 11:12:09;;;;;;;2.45;1.95;;;;;;;10.50;38.78;99382.47;4987057;28;20038;-26
2023/03/28 11:14:52;;;;;;;3.88;2.30;;;;;;;10.64;38.88;99390.00;4985061;28;20089;-26
2023/03/28 11:17:37;;;;;;;3.47;1.67;;;;;;;10.38;38.49;99385.97;4985609;28;20045;-27
2023/03/28 11:20:16;;;;;;;3.15;2.10;;;;;;;9.68;38.79;99386.75;4985647;28;20569;-27
2023/03/28 11:23:22;;;;;;;5.82;2.55;;;;;;;9.27;38.78;99374.28;4985924;28;20062;-27
2023/03/28 11:26:22;;;;;;;5.65;2.08;;;;;;;9.47;38.80;99364.16;4981463;28;20437;-27
2023/03/28 11:28:55;;;;;;;5.45;2.97;;;;;;;10.26;39.24;99403.81;4986386;28;20027;-27
2023/03/28 11:31:30;;;;;;;3.47;2.05;;;;;;;10.45;37.06;99402.63;4987250;28;20061;-26
2023/03/28 11:33:56;;;;;;;4.15;1.90;;;;;;;10.42;38.23;99387.13;4987677;28;20513;-26
2023/03/28 11:36:39;;;;;;;4.03;1.98;;;;;;;11.30;36.42;99396.81;4987471;28;20045;-26
2023/03/28 11:39:37;;;;;;;3.95;1.67;;;;;;;11.78;35.91;99400.81;4987780;28;20199;-27
2023/03/28 11:42:14;;;;;;;3.65;1.60;;;;;;;11.76;35.62;99393.03;4946131;28;20042;-27
2023/03/28 11:45:17;;;;;;;3.45;1.45;;;;;;;11.70;35.25;99395.88;4987305;28;20037;-26
2023/03/28 11:48:17;;;;;;;3.42;1.90;;;;;;;11.83;36.39;99406.25;4951276;28;20041;-27
2023/03/28 11:51:07;;;;;;;2.67;1.58;;;;;;;11.80;34.74;99414.75;4987310;28;20026;-26
2023/03/28 11:53:40;;;;;;;2.47;1.65;;;;;;;10.97;36.03;99401.00;4987488;28;20034;-26
2023/03/28 11:56:17;;;;;;;2.13;1.60;;;;;;;10.99;35.13;99382.91;4987478;28;20541;-27
2023/03/28 11:58:48;;;;;;;3.42;1.70;;;;;;;11.03;35.23;99392.03;4987105;28;20026;-27
2023/03/28 12:01:20;;;;;;;2.50;1.88;;;;;;;10.69;36.01;99413.28;4986982;28;20532;-27